Time;durP1;ratioP1;P1;durP2;ratioP2;P2;SDS_P1;SDS_P2;PMS_P1;PMS_P2;Temp;Humidity;BMP_temperature;BMP_pressure;BME280_temperature;BME280_humidity;BME280_pressure;Samples;Min_cycle;Max_cycle;Signal;HPM_P1;HPM_P2
2022/05/17 00:02:24;;;;;;;5.87;4.47;;;16.20;99.90;;;;;;4940479;29;20539;-84
2022/05/17 00:04:50;;;;;;;6.33;4.50;;;16.20;99.90;;;;;;4940154;28;20213;-84
2022/05/17 00:07:16;;;;;;;9.83;4.37;;;16.20;99.90;;;;;;4944166;29;20219;-82
2022/05/17 00:09:42;;;;;;;8.73;4.60;;;16.30;99.90;;;;;;4943737;28;20191;-84
2022/05/17 00:12:08;;;;;;;6.83;4.53;;;16.30;99.90;;;;;;4944051;29;20436;-84
2022/05/17 00:14:34;;;;;;;7.43;4.07;;;16.30;99.90;;;;;;4948643;28;20228;-82
2022/05/17 00:17:00;;;;;;;8.47;4.73;;;16.30;99.90;;;;;;4940461;28;20447;-82
2022/05/17 00:19:27;;;;;;;7.53;4.80;;;16.30;99.90;;;;;;4936758;28;20441;-83
2022/05/17 00:21:53;;;;;;;7.13;4.90;;;16.20;99.90;;;;;;4946694;29;20452;-82
2022/05/17 00:24:21;;;;;;;8.33;4.70;;;16.00;99.90;;;;;;4942433;28;20459;-82
2022/05/17 00:26:46;;;;;;;8.83;4.67;;;16.00;99.90;;;;;;4948005;29;20781;-81
2022/05/17 00:29:12;;;;;;;6.60;4.60;;;15.90;99.90;;;;;;4947525;29;20428;-81
2022/05/17 00:31:37;;;;;;;8.37;4.50;;;15.90;99.90;;;;;;4940837;29;20192;-82
2022/05/17 00:34:04;;;;;;;4.63;4.03;;;15.80;99.90;;;;;;4945114;28;20308;-81
2022/05/17 00:36:31;;;;;;;10.30;5.90;;;15.90;99.90;;;;;;4953617;28;20231;-83
2022/05/17 00:38:57;;;;;;;8.43;4.20;;;15.90;99.90;;;;;;4942908;29;20480;-81
2022/05/17 00:41:22;;;;;;;9.63;4.63;;;15.70;99.90;;;;;;4938580;28;20942;-83
2022/05/17 00:46:52;;;;;;;6.53;4.23;;;15.90;99.90;;;;;;4947379;29;20227;-83
2022/05/17 00:49:30;;;;;;;10.40;4.40;;;15.90;99.90;;;;;;4945305;28;20436;-80
2022/05/17 00:52:00;;;;;;;8.87;5.10;;;15.90;99.90;;;;;;4946268;29;20486;-82
2022/05/17 00:54:26;;;;;;;7.10;5.10;;;15.90;99.90;;;;;;4944248;28;20487;-80
2022/05/17 00:57:12;;;;;;;10.37;4.03;;;16.00;99.90;;;;;;4945739;29;20484;-81
2022/05/17 00:59:38;;;;;;;7.40;4.53;;;15.90;99.90;;;;;;4943875;29;20543;-81
2022/05/17 01:02:07;;;;;;;8.43;4.60;;;15.90;99.90;;;;;;4942723;29;20473;-81
2022/05/17 01:04:33;;;;;;;5.93;3.63;;;15.90;99.90;;;;;;4943403;28;20485;-82
2022/05/17 01:07:04;;;;;;;6.03;4.57;;;15.90;99.90;;;;;;4936841;28;20475;-82
2022/05/17 01:09:29;;;;;;;5.90;3.87;;;15.90;99.90;;;;;;4946125;29;20208;-82
2022/05/17 01:11:55;;;;;;;12.60;5.10;;;15.90;99.90;;;;;;4941654;29;22353;-81
2022/05/17 01:17:06;;;;;;;5.93;4.00;;;15.80;99.90;;;;;;4946531;29;20220;-82
2022/05/17 01:19:32;;;;;;;10.70;4.30;;;15.80;99.90;;;;;;4936545;29;20452;-81
2022/05/17 01:21:57;;;;;;;6.57;4.70;;;15.90;99.90;;;;;;4943888;29;20506;-81
2022/05/17 01:24:24;;;;;;;5.73;3.73;;;15.90;99.90;;;;;;4946915;29;20480;-82
2022/05/17 01:26:57;;;;;;;10.93;4.63;;;15.80;99.90;;;;;;4948233;28;20209;-81
2022/05/17 01:29:22;;;;;;;8.63;4.50;;;15.90;99.90;;;;;;4941482;29;20452;-81
2022/05/17 01:31:48;;;;;;;6.30;4.30;;;16.00;99.90;;;;;;4950928;29;20528;-83
2022/05/17 01:34:14;;;;;;;7.37;4.53;;;16.10;99.90;;;;;;4950132;28;20236;-82
2022/05/17 01:36:41;;;;;;;7.03;4.77;;;16.00;99.90;;;;;;4945164;28;20195;-82
2022/05/17 01:39:07;;;;;;;9.40;5.77;;;15.90;99.90;;;;;;4947421;29;20197;-82
2022/05/17 01:41:33;;;;;;;8.80;5.50;;;15.80;99.90;;;;;;4949135;29;20444;-81
2022/05/17 01:43:59;;;;;;;10.40;4.87;;;15.80;99.90;;;;;;4949758;28;20441;-81
2022/05/17 01:46:24;;;;;;;7.30;4.93;;;15.80;99.90;;;;;;4950151;29;20951;-81
2022/05/17 01:48:51;;;;;;;10.07;4.80;;;15.70;99.90;;;;;;4947161;29;20198;-81
2022/05/17 01:51:18;;;;;;;6.30;4.93;;;15.60;99.90;;;;;;4942516;29;20650;-82
2022/05/17 01:53:43;;;;;;;7.53;5.87;;;15.50;99.90;;;;;;4942263;29;20452;-81
2022/05/17 01:56:09;;;;;;;11.73;6.20;;;15.40;99.90;;;;;;4959546;28;20524;-81
2022/05/17 01:58:36;;;;;;;6.70;5.27;;;15.40;99.90;;;;;;4945928;29;20196;-81
2022/05/17 02:01:03;;;;;;;9.73;6.30;;;15.30;99.90;;;;;;4952376;28;20196;-82
2022/05/17 02:03:29;;;;;;;10.40;6.13;;;15.20;99.90;;;;;;4954749;29;20453;-80
2022/05/17 02:05:54;;;;;;;12.90;6.63;;;15.20;99.90;;;;;;4943052;29;20476;-80
2022/05/17 02:08:20;;;;;;;8.17;6.10;;;15.10;99.90;;;;;;4937840;28;20225;-80
2022/05/17 02:10:46;;;;;;;8.33;5.27;;;15.00;99.90;;;;;;4939978;28;20184;-81
2022/05/17 02:13:11;;;;;;;10.63;6.27;;;14.90;99.90;;;;;;4937529;28;20184;-82
2022/05/17 02:15:38;;;;;;;8.73;6.00;;;14.80;99.90;;;;;;4944623;29;20463;-80
2022/05/17 02:18:04;;;;;;;9.77;6.50;;;14.80;99.90;;;;;;4948867;28;20191;-79
2022/05/17 02:20:30;;;;;;;7.23;5.03;;;14.80;99.90;;;;;;4954049;29;20449;-80
2022/05/17 02:22:56;;;;;;;6.37;5.63;;;14.70;99.90;;;;;;4946324;29;20484;-81
2022/05/17 02:25:21;;;;;;;7.67;5.43;;;14.50;99.90;;;;;;4946750;29;20460;-81
2022/05/17 02:27:47;;;;;;;8.97;6.37;;;14.40;99.90;;;;;;4954432;29;21026;-81
2022/05/17 02:30:13;;;;;;;6.90;5.30;;;14.20;99.90;;;;;;4940976;29;20758;-81
2022/05/17 02:32:39;;;;;;;11.27;6.23;;;14.20;99.90;;;;;;4945158;29;20490;-80
2022/05/17 02:35:07;;;;;;;11.80;6.93;;;14.10;99.90;;;;;;4947089;29;20952;-81
2022/05/17 02:37:33;;;;;;;11.53;6.10;;;14.10;99.90;;;;;;4945566;29;21011;-81
2022/05/17 02:39:58;;;;;;;8.63;5.83;;;14.10;99.90;;;;;;4941248;29;20475;-82
2022/05/17 02:42:24;;;;;;;18.80;8.03;;;14.00;99.90;;;;;;4941362;29;20188;-83
2022/05/17 02:44:49;;;;;;;8.23;6.70;;;13.90;99.90;;;;;;4954056;28;20221;-82
2022/05/17 02:47:15;;;;;;;11.50;5.33;;;13.90;99.90;;;;;;4953694;29;20223;-80
2022/05/17 02:49:44;;;;;;;9.50;5.50;;;13.90;99.90;;;;;;4948614;29;20193;-81
2022/05/17 02:52:11;;;;;;;10.77;6.33;;;13.90;99.90;;;;;;4943292;29;20177;-80
2022/05/17 02:54:40;;;;;;;9.00;6.27;;;13.80;99.90;;;;;;4937887;28;20467;-83
2022/05/17 02:57:07;;;;;;;7.70;6.35;;;13.60;99.90;;;;;;4942003;29;20445;-79
2022/05/17 02:59:32;;;;;;;7.43;5.47;;;13.60;99.90;;;;;;4943806;29;20212;-81
2022/05/17 03:01:59;;;;;;;7.40;6.43;;;13.50;99.90;;;;;;4942479;28;20233;-80
2022/05/17 03:04:28;;;;;;;8.10;6.10;;;13.50;99.90;;;;;;4949446;28;20215;-82
2022/05/17 03:06:54;;;;;;;8.67;6.53;;;13.50;99.90;;;;;;4936390;28;20472;-81
2022/05/17 03:09:20;;;;;;;11.07;6.88;;;13.50;99.90;;;;;;4942012;29;20479;-80
2022/05/17 03:11:46;;;;;;;9.90;6.60;;;13.40;99.90;;;;;;4946999;28;20636;-84
2022/05/17 03:14:13;;;;;;;7.37;6.63;;;13.40;99.90;;;;;;4948939;29;20185;-82
2022/05/17 03:16:39;;;;;;;13.07;6.55;;;13.40;99.90;;;;;;4959775;29;20204;-80
2022/05/17 03:19:06;;;;;;;7.10;5.95;;;13.40;99.90;;;;;;4959784;29;20192;-82
2022/05/17 03:21:32;;;;;;;7.55;5.90;;;13.40;99.90;;;;;;4952208;29;20196;-81
2022/05/17 03:23:57;;;;;;;12.38;6.78;;;13.30;99.90;;;;;;4951042;28;20195;-81
2022/05/17 03:26:23;;;;;;;16.80;7.77;;;13.30;99.90;;;;;;4950025;28;20208;-81
2022/05/17 03:28:48;;;;;;;12.77;7.10;;;13.20;99.90;;;;;;4950239;29;20184;-81
2022/05/17 03:31:14;;;;;;;10.73;7.83;;;13.10;99.90;;;;;;4951866;28;20795;-79
2022/05/17 03:33:40;;;;;;;12.60;9.03;;;13.00;99.90;;;;;;4951312;29;20188;-81
2022/05/17 03:36:07;;;;;;;10.30;7.00;;;12.90;99.90;;;;;;4954418;28;20212;-82
2022/05/17 03:38:34;;;;;;;10.10;6.55;;;12.90;99.90;;;;;;4951834;29;20440;-83
2022/05/17 03:41:00;;;;;;;10.65;6.47;;;12.80;99.90;;;;;;4965480;28;20198;-80
2022/05/17 03:43:27;;;;;;;9.43;7.35;;;12.60;99.90;;;;;;4957527;29;20204;-82
2022/05/17 03:45:54;;;;;;;14.10;6.95;;;12.60;99.90;;;;;;4958092;28;20224;-82
2022/05/17 03:48:19;;;;;;;14.13;8.15;;;12.50;99.90;;;;;;4952082;29;20240;-80
2022/05/17 03:50:45;;;;;;;15.80;9.50;;;12.60;99.90;;;;;;4955019;29;20201;-82
2022/05/17 03:53:11;;;;;;;11.73;7.80;;;12.60;99.90;;;;;;4951938;29;20184;-84
2022/05/17 03:55:37;;;;;;;10.23;7.63;;;12.70;99.90;;;;;;4950452;29;20765;-82
2022/05/17 03:58:02;;;;;;;16.63;8.93;;;12.80;99.90;;;;;;4950306;29;20203;-83
2022/05/17 04:00:28;;;;;;;18.73;8.20;;;12.90;99.90;;;;;;4950375;29;20432;-81
2022/05/17 04:02:53;;;;;;;13.50;8.70;;;13.00;99.90;;;;;;4950682;29;20291;-81
2022/05/17 04:05:19;;;;;;;13.97;7.90;;;13.10;99.90;;;;;;4952233;29;20319;-82
2022/05/17 04:07:45;;;;;;;14.27;9.10;;;13.20;99.90;;;;;;4950230;29;20280;-83
2022/05/17 04:10:13;;;;;;;11.10;8.80;;;13.30;99.90;;;;;;4954494;29;20481;-83
2022/05/17 04:12:38;;;;;;;13.95;11.32;;;13.20;99.90;;;;;;4949462;29;20212;-80
2022/05/17 04:15:07;;;;;;;15.43;10.30;;;13.30;99.90;;;;;;4954505;28;20209;-82
2022/05/17 04:17:32;;;;;;;8.77;7.88;;;13.40;99.90;;;;;;4951983;29;20847;-81
2022/05/17 04:19:59;;;;;;;13.13;7.33;;;13.40;99.90;;;;;;4948364;29;20238;-84
2022/05/17 04:22:25;;;;;;;9.02;7.43;;;13.30;99.90;;;;;;4947820;28;20192;-80
2022/05/17 04:24:57;;;;;;;13.43;8.13;;;13.20;99.90;;;;;;4947943;29;20215;-80
2022/05/17 04:27:24;;;;;;;14.80;7.65;;;13.40;99.90;;;;;;4949589;29;20286;-82
2022/05/17 04:29:51;;;;;;;8.90;6.88;;;14.20;99.90;;;;;;4943152;29;20191;-83
2022/05/17 04:32:16;;;;;;;10.47;6.13;;;15.50;99.90;;;;;;4940877;29;20181;-85
2022/05/17 04:34:42;;;;;;;8.40;6.33;;;16.80;99.90;;;;;;4942736;28;20460;-84
2022/05/17 04:37:08;;;;;;;12.67;6.13;;;17.70;99.90;;;;;;4943971;29;20208;-85
2022/05/17 04:39:34;;;;;;;7.67;6.90;;;18.60;99.90;;;;;;4944031;29;20275;-83
2022/05/17 04:42:00;;;;;;;6.73;4.80;;;19.50;99.90;;;;;;4939447;28;20463;-84
2022/05/17 04:44:26;;;;;;;7.40;5.20;;;22.60;99.90;;;;;;4953947;23;20217;-81
2022/05/17 04:46:52;;;;;;;5.97;4.43;;;22.70;99.90;;;;;;4927348;29;20480;-84
2022/05/17 04:49:17;;;;;;;6.00;4.80;;;24.70;99.90;;;;;;4927797;29;20440;-82
2022/05/17 04:51:43;;;;;;;7.33;5.77;;;25.60;99.90;;;;;;4916263;29;20558;-85
2022/05/17 04:54:09;;;;;;;7.70;6.20;;;25.90;99.90;;;;;;4919917;29;20221;-82
2022/05/17 04:56:34;;;;;;;9.73;6.20;;;25.90;99.90;;;;;;4909924;29;20448;-81
2022/05/17 04:59:01;;;;;;;7.43;5.50;;;27.30;99.90;;;;;;4919612;29;20743;-82
2022/05/17 05:01:27;;;;;;;6.80;4.90;;;27.20;99.90;;;;;;4920560;29;20297;-85
2022/05/17 05:03:52;;;;;;;6.80;4.93;;;30.50;99.90;;;;;;4906075;29;21069;-81
2022/05/17 05:06:18;;;;;;;6.43;4.77;;;30.70;99.90;;;;;;4929660;28;20279;-84
2022/05/17 05:08:44;;;;;;;7.73;5.30;;;;;;;;;;4917255;29;20211;-81
2022/05/17 05:11:10;;;;;;;6.00;4.87;;;34.60;88.80;;;;;;4928476;29;20873;-82
2022/05/17 05:13:36;;;;;;;9.73;5.30;;;34.50;88.90;;;;;;4921236;29;20450;-83
2022/05/17 05:16:01;;;;;;;11.80;5.90;;;34.90;77.60;;;;;;4916715;29;20222;-86
2022/05/17 05:18:27;;;;;;;6.83;6.20;;;34.10;76.60;;;;;;4927268;29;20273;-86
2022/05/17 05:21:11;;;;;;;8.57;6.60;;;33.70;74.80;;;;;;4931609;23;20766;-81
2022/05/17 05:23:38;;;;;;;8.33;7.20;;;34.00;73.20;;;;;;4907992;29;20712;-83
2022/05/17 05:26:04;;;;;;;14.13;7.07;;;33.00;72.60;;;;;;4919848;29;20543;-83
2022/05/17 05:28:31;;;;;;;7.93;7.07;;;33.70;73.20;;;;;;4902555;29;20505;-82
2022/05/17 05:30:57;;;;;;;8.13;7.40;;;33.90;70.00;;;;;;4898831;29;21107;-82
2022/05/17 05:33:23;;;;;;;9.20;8.47;;;34.40;69.10;;;;;;4902034;29;21534;-81
2022/05/17 05:35:51;;;;;;;9.90;9.10;;;34.50;67.80;;;;;;4902796;29;20458;-83
2022/05/17 05:38:17;;;;;;;12.40;9.67;;;34.50;66.30;;;;;;4902401;29;20442;-83
2022/05/17 05:40:43;;;;;;;9.57;8.67;;;34.30;66.30;;;;;;4898850;29;20438;-85
2022/05/17 05:43:08;;;;;;;10.53;9.47;;;34.50;66.70;;;;;;4900363;29;20661;-85
2022/05/17 05:45:34;;;;;;;10.77;9.77;;;35.10;63.70;;;;;;4893289;29;20486;-86
2022/05/17 05:48:00;;;;;;;12.20;11.00;;;35.20;62.20;;;;;;4898627;29;20212;-84
2022/05/17 05:50:26;;;;;;;12.30;11.00;;;35.40;63.80;;;;;;4911785;29;20193;-83
2022/05/17 05:52:59;;;;;;;12.17;10.67;;;34.90;60.60;;;;;;4896316;29;21175;-82
2022/05/17 05:55:24;;;;;;;11.13;10.17;;;35.40;63.30;;;;;;4911025;29;20472;-83
2022/05/17 05:57:50;;;;;;;11.73;10.53;;;35.60;59.50;;;;;;4891608;29;20452;-82
2022/05/17 06:00:19;;;;;;;12.30;11.30;;;37.00;59.20;;;;;;4894564;29;20184;-83
2022/05/17 06:02:44;;;;;;;13.33;12.57;;;38.50;57.50;;;;;;4893973;29;20281;-84
2022/05/17 06:05:11;;;;;;;13.60;12.50;;;39.90;54.70;;;;;;4909930;29;21676;-83
2022/05/17 06:07:36;;;;;;;13.93;13.03;;;;;;;;;;4895377;29;20227;-85
2022/05/17 06:10:06;;;;;;;15.00;14.17;;;42.20;49.40;;;;;;4899922;29;20556;-82
2022/05/17 06:12:32;;;;;;;16.53;15.33;;;43.00;47.10;;;;;;4897185;29;20982;-84
2022/05/17 06:14:58;;;;;;;15.80;14.60;;;43.00;45.10;;;;;;4896894;29;20912;-83
2022/05/17 06:17:27;;;;;;;16.50;15.10;;;;;;;;;;4897367;29;20671;-82
2022/05/17 06:19:54;;;;;;;16.07;15.17;;;41.30;44.10;;;;;;4903802;29;20224;-84
2022/05/17 06:22:20;;;;;;;13.80;13.00;;;43.10;47.50;;;;;;4899162;29;20457;-83
2022/05/17 06:24:45;;;;;;;15.97;14.73;;;41.90;46.00;;;;;;4903978;29;20467;-83
2022/05/17 06:27:11;;;;;;;15.37;14.33;;;41.50;43.80;;;;;;4900927;29;20285;-85
2022/05/17 06:29:36;;;;;;;15.80;14.63;;;39.90;47.30;;;;;;4901270;29;20966;-83
2022/05/17 06:32:02;;;;;;;18.73;14.40;;;39.90;46.70;;;;;;4905570;29;20186;-84
2022/05/17 06:34:28;;;;;;;15.57;14.47;;;39.80;46.90;;;;;;4908299;29;20411;-83
2022/05/17 06:36:53;;;;;;;15.60;14.50;;;39.80;47.60;;;;;;4900170;29;20271;-84
2022/05/17 06:39:19;;;;;;;15.50;14.30;;;39.50;48.20;;;;;;4901447;29;20191;-83
2022/05/17 06:41:45;;;;;;;15.20;14.10;;;38.50;48.40;;;;;;4899131;29;20682;-84
2022/05/17 06:44:11;;;;;;;15.57;14.30;;;37.70;48.70;;;;;;4904515;29;20506;-82
2022/05/17 06:46:36;;;;;;;15.13;13.70;;;37.70;50.30;;;;;;4897988;29;20590;-83
2022/05/17 06:49:02;;;;;;;15.90;14.80;;;37.40;51.30;;;;;;4907924;29;20189;-83
2022/05/17 06:51:27;;;;;;;14.10;13.00;;;39.10;49.90;;;;;;4909169;29;20196;-82
2022/05/17 06:53:53;;;;;;;14.70;13.67;;;39.10;50.40;;;;;;4902355;29;20202;-84
2022/05/17 06:56:19;;;;;;;15.67;14.67;;;40.00;48.70;;;;;;4898554;29;20202;-83
2022/05/17 06:58:44;;;;;;;15.00;13.80;;;39.70;47.70;;;;;;4901873;29;20242;-85
2022/05/17 07:01:10;;;;;;;14.70;13.70;;;39.80;48.60;;;;;;4897401;29;20206;-84
2022/05/17 07:03:36;;;;;;;15.47;13.90;;;40.10;47.80;;;;;;4901478;29;20242;-84
2022/05/17 07:06:02;;;;;;;14.63;13.53;;;39.80;47.70;;;;;;4901077;29;20205;-84
2022/05/17 07:08:28;;;;;;;15.10;13.67;;;;;;;;;;4898759;29;20194;-83
2022/05/17 07:13:38;;;;;;;15.93;14.90;;;42.80;44.80;;;;;;4900746;29;20204;-82
2022/05/17 07:16:03;;;;;;;16.07;14.87;;;43.10;42.50;;;;;;4902752;29;20465;-85
2022/05/17 07:18:29;;;;;;;16.30;15.03;;;42.90;43.20;;;;;;4906587;29;20693;-85
2022/05/17 07:20:55;;;;;;;16.63;15.10;;;43.90;40.90;;;;;;4904624;29;20232;-87
2022/05/17 07:23:21;;;;;;;17.07;16.07;;;44.40;40.30;;;;;;4902731;29;20205;-84
2022/05/17 07:25:47;;;;;;;18.23;16.93;;;44.00;39.40;;;;;;4902422;29;20466;-82
2022/05/17 07:28:18;;;;;;;18.07;16.77;;;44.40;38.70;;;;;;4901419;29;20466;-81
2022/05/17 07:30:45;;;;;;;16.83;15.67;;;42.70;39.50;;;;;;4901907;29;20469;-84
2022/05/17 07:33:11;;;;;;;15.53;14.57;;;41.80;38.10;;;;;;4905903;29;20506;-83
2022/05/17 07:35:37;;;;;;;17.47;15.87;;;41.60;39.60;;;;;;4900721;29;20517;-80
2022/05/17 07:38:04;;;;;;;9.40;8.53;;;42.30;38.60;;;;;;4916232;29;20649;-83
2022/05/17 07:40:29;;;;;;;7.83;6.93;;;43.10;37.20;;;;;;4900151;29;20978;-83
2022/05/17 07:42:55;;;;;;;13.73;12.70;;;;;;;;;;4906396;29;20441;-83
2022/05/17 07:45:21;;;;;;;12.37;11.50;;;42.80;37.00;;;;;;4903093;29;20221;-83
2022/05/17 07:47:46;;;;;;;3.93;2.33;;;43.40;36.40;;;;;;4906050;29;20585;-85
2022/05/17 07:50:12;;;;;;;7.23;2.90;;;44.20;34.70;;;;;;4911564;29;20189;-83
2022/05/17 07:52:38;;;;;;;5.17;2.50;;;44.10;33.20;;;;;;4905931;29;20190;-84
2022/05/17 07:55:04;;;;;;;8.70;2.70;;;41.90;33.60;;;;;;4902759;29;20210;-81
2022/05/17 07:57:30;;;;;;;7.70;4.30;;;41.10;36.50;;;;;;4903467;29;20202;-83
2022/05/17 07:59:56;;;;;;;6.90;2.80;;;41.60;35.00;;;;;;4900873;29;20446;-83
2022/05/17 08:02:22;;;;;;;7.23;2.60;;;40.90;35.10;;;;;;4900402;29;20187;-83
2022/05/17 08:04:47;;;;;;;5.17;2.83;;;40.20;35.80;;;;;;4903265;29;20210;-85
2022/05/17 08:07:13;;;;;;;5.60;2.80;;;38.90;38.00;;;;;;4902916;29;20309;-84
2022/05/17 08:09:38;;;;;;;4.97;2.90;;;39.70;37.50;;;;;;4905618;29;20213;-84
2022/05/17 08:12:07;;;;;;;8.30;3.07;;;38.30;36.80;;;;;;4903132;29;20174;-81
2022/05/17 08:14:37;;;;;;;7.30;2.77;;;36.50;40.70;;;;;;4915736;29;20248;-82
2022/05/17 08:17:04;;;;;;;6.70;6.30;;;36.90;41.20;;;;;;4906604;29;20443;-84
2022/05/17 08:19:29;;;;;;;8.47;7.00;;;39.00;39.00;;;;;;4918370;29;20627;-85
2022/05/17 08:21:55;;;;;;;17.40;16.20;;;39.50;37.90;;;;;;4907396;29;20540;-83
2022/05/17 08:24:21;;;;;;;16.03;15.20;;;38.70;37.80;;;;;;4900082;29;20222;-82
2022/05/17 08:29:30;;;;;;;14.60;13.43;;;37.00;38.90;;;;;;4896561;29;20187;-84
2022/05/17 08:34:40;;;;;;;13.83;12.80;;;36.30;40.00;;;;;;4901377;29;20393;-82
2022/05/17 08:37:06;;;;;;;14.00;13.20;;;36.10;40.50;;;;;;4902046;29;20570;-82
2022/05/17 08:39:31;;;;;;;14.20;13.10;;;35.90;40.60;;;;;;4916781;29;20873;-83
2022/05/17 08:42:04;;;;;;;14.00;13.10;;;36.40;43.20;;;;;;4901385;29;20201;-83
2022/05/17 08:44:48;;;;;;;13.73;13.03;;;37.00;41.10;;;;;;4901455;29;20261;-84
2022/05/17 08:47:25;;;;;;;13.60;12.80;;;37.20;41.20;;;;;;4905561;29;20874;-85
2022/05/17 08:50:10;;;;;;;14.80;13.90;;;36.70;41.40;;;;;;4901822;29;21129;-84
2022/05/17 08:52:37;;;;;;;13.90;13.13;;;36.10;41.70;;;;;;4902658;29;20446;-83
2022/05/17 08:55:21;;;;;;;14.00;13.20;;;36.20;41.30;;;;;;4907611;29;20464;-82
2022/05/17 08:57:57;;;;;;;13.80;13.03;;;35.30;41.30;;;;;;4911241;29;20806;-83
2022/05/17 09:00:41;;;;;;;15.13;14.13;;;34.90;43.80;;;;;;4893200;29;21066;-84
2022/05/17 09:03:44;;;;;;;14.37;13.57;;;34.40;42.10;;;;;;4895858;29;20456;-83
2022/05/17 09:06:14;;;;;;;14.43;13.30;;;34.30;45.60;;;;;;4893977;29;20498;-85
2022/05/17 09:08:58;;;;;;;14.07;13.03;;;34.30;44.80;;;;;;4891279;29;21190;-83
2022/05/17 09:11:55;;;;;;;14.33;13.23;;;33.90;43.10;;;;;;4892699;29;20902;-81
2022/05/17 09:14:24;;;;;;;13.93;12.90;;;32.40;44.20;;;;;;4896707;29;20474;-83
2022/05/17 09:17:05;;;;;;;12.77;11.97;;;32.30;44.90;;;;;;4913083;29;20539;-81
2022/05/17 09:19:31;;;;;;;13.77;12.43;;;31.40;48.10;;;;;;4913407;29;20461;-83
2022/05/17 09:22:00;;;;;;;10.47;9.60;;;30.80;47.40;;;;;;4897444;29;20475;-83
2022/05/17 09:24:30;;;;;;;9.13;8.67;;;29.40;50.20;;;;;;4906050;29;20195;-82
2022/05/17 09:27:21;;;;;;;7.70;7.27;;;29.20;50.60;;;;;;4890284;29;20835;-84
2022/05/17 09:29:50;;;;;;;8.40;7.63;;;29.00;52.50;;;;;;4883819;29;20993;-82
2022/05/17 09:32:31;;;;;;;10.87;8.07;;;29.40;51.30;;;;;;4917068;29;20953;-85
2022/05/17 09:35:27;;;;;;;8.73;8.00;;;30.50;50.00;;;;;;4907327;29;20462;-83
2022/05/17 09:38:03;;;;;;;9.13;8.40;;;31.60;48.50;;;;;;4898078;29;21139;-82
2022/05/17 09:40:35;;;;;;;10.03;9.10;;;32.50;46.80;;;;;;4898316;29;20447;-83
2022/05/17 09:43:07;;;;;;;8.60;8.10;;;32.80;45.30;;;;;;4898562;29;20449;-84
2022/05/17 09:45:55;;;;;;;9.90;9.23;;;33.20;45.40;;;;;;4903769;29;20467;-82
2022/05/17 09:54:31;;;;;;;8.90;8.40;;;30.60;49.90;;;;;;4897936;29;20439;-83
2022/05/17 09:57:17;;;;;;;9.80;9.03;;;31.30;48.90;;;;;;4895871;29;20450;-84
2022/05/17 09:59:44;;;;;;;8.97;8.23;;;31.50;49.50;;;;;;4891052;29;20787;-83
2022/05/17 10:02:34;;;;;;;8.70;8.10;;;32.50;46.20;;;;;;4903042;29;20473;-85
2022/05/17 10:05:16;;;;;;;9.87;9.13;;;33.30;46.50;;;;;;4896780;29;20511;-81
2022/05/17 10:07:47;;;;;;;10.27;9.67;;;33.00;46.00;;;;;;4913170;29;21050;-83
2022/05/17 10:10:35;;;;;;;10.27;9.37;;;32.50;47.60;;;;;;4893975;29;20452;-82
2022/05/17 10:13:25;;;;;;;9.20;8.70;;;32.00;47.90;;;;;;4906707;29;20494;-81
2022/05/17 10:15:54;;;;;;;9.73;8.83;;;31.90;46.00;;;;;;4896199;29;21066;-84
2022/05/17 10:18:35;;;;;;;9.77;8.97;;;31.90;46.30;;;;;;4898653;29;20568;-84
2022/05/17 10:21:12;;;;;;;9.10;8.50;;;32.50;48.40;;;;;;4897235;29;20504;-85
2022/05/17 10:24:00;;;;;;;11.63;8.33;;;30.90;48.80;;;;;;4905602;29;20452;-83
2022/05/17 10:26:33;;;;;;;8.47;7.97;;;31.10;51.40;;;;;;4908145;29;20472;-84
2022/05/17 10:29:30;;;;;;;9.73;9.13;;;32.50;47.00;;;;;;4903993;29;20479;-83
2022/05/17 10:32:09;;;;;;;8.17;7.53;;;31.30;48.10;;;;;;4901101;29;20440;-84
2022/05/17 10:34:57;;;;;;;9.00;8.13;;;29.70;50.90;;;;;;4905660;29;20980;-83
2022/05/17 10:37:33;;;;;;;7.00;6.40;;;29.20;51.60;;;;;;4891344;29;20449;-83
2022/05/17 10:40:10;;;;;;;7.47;6.77;;;28.30;53.10;;;;;;4897900;29;20859;-83
2022/05/17 10:42:37;;;;;;;8.80;5.47;;;27.90;52.10;;;;;;4894770;29;20999;-82
2022/05/17 10:45:05;;;;;;;6.00;5.40;;;27.90;52.50;;;;;;4895363;29;20473;-83
2022/05/17 10:48:18;;;;;;;4.90;4.50;;;28.20;53.60;;;;;;4899435;29;20472;-84
2022/05/17 10:50:53;;;;;;;4.97;4.30;;;27.00;54.70;;;;;;4898721;29;20446;-84
2022/05/17 10:53:23;;;;;;;7.43;4.40;;;27.10;54.90;;;;;;4911309;29;21013;-82
2022/05/17 10:56:17;;;;;;;5.80;4.50;;;27.20;56.30;;;;;;4893435;29;22501;-84
2022/05/17 10:58:44;;;;;;;6.10;5.40;;;27.40;55.30;;;;;;4889891;29;20439;-84
2022/05/17 11:01:43;;;;;;;5.13;4.67;;;27.20;54.90;;;;;;4909829;29;22272;-85
2022/05/17 11:04:27;;;;;;;6.30;4.30;;;27.20;54.80;;;;;;4873541;29;20453;-83
2022/05/17 11:07:03;;;;;;;4.63;4.23;;;27.40;54.40;;;;;;4911315;29;20467;-84
2022/05/17 11:09:40;;;;;;;4.57;3.97;;;27.60;54.50;;;;;;4897829;29;20442;-83
2022/05/17 11:12:13;;;;;;;6.70;4.83;;;27.30;54.60;;;;;;4897675;29;20440;-83
2022/05/17 11:14:48;;;;;;;4.50;4.20;;;26.70;56.70;;;;;;4896276;29;20893;-85
2022/05/17 11:17:17;;;;;;;8.20;4.43;;;26.60;55.70;;;;;;4898257;29;20438;-83
2022/05/17 11:19:48;;;;;;;7.37;4.50;;;26.70;55.90;;;;;;4902129;29;20443;-82
2022/05/17 11:22:24;;;;;;;6.73;3.93;;;26.60;54.60;;;;;;4905267;29;20451;-84
2022/05/17 11:25:12;;;;;;;4.50;4.20;;;26.80;53.00;;;;;;4897044;29;20574;-85
2022/05/17 11:28:09;;;;;;;4.70;4.20;;;26.90;53.70;;;;;;4896368;29;20875;-84
2022/05/17 11:30:50;;;;;;;5.27;4.00;;;26.70;53.50;;;;;;4894777;29;21169;-84
2022/05/17 11:33:22;;;;;;;6.17;4.00;;;26.70;54.10;;;;;;4901682;29;20551;-81
2022/05/17 11:35:53;;;;;;;4.50;3.53;;;26.40;56.00;;;;;;4917025;29;20471;-82
2022/05/17 11:38:50;;;;;;;4.10;3.80;;;26.70;54.00;;;;;;4909215;29;20456;-82
2022/05/17 11:41:22;;;;;;;5.77;2.50;;;26.80;54.40;;;;;;4909443;29;20445;-83
2022/05/17 11:44:10;;;;;;;3.53;2.77;;;26.90;56.40;;;;;;4895172;29;20507;-84
2022/05/17 11:46:45;;;;;;;4.90;2.70;;;27.10;51.80;;;;;;4897486;29;20584;-83
2022/05/17 11:49:11;;;;;;;3.27;3.07;;;27.10;51.10;;;;;;4903734;29;20447;-84
2022/05/17 11:51:56;;;;;;;3.13;2.80;;;27.20;51.40;;;;;;4904632;29;20543;-85
2022/05/17 11:54:45;;;;;;;3.53;3.07;;;27.50;53.10;;;;;;4914958;29;20303;-86
2022/05/17 11:57:12;;;;;;;4.43;2.70;;;27.60;56.00;;;;;;4913394;29;21038;-83
2022/05/17 12:00:01;;;;;;;3.97;3.07;;;27.70;54.00;;;;;;4910792;29;20473;-82
2022/05/17 12:02:43;;;;;;;5.10;3.47;;;28.10;53.50;;;;;;4896828;29;20449;-87
2022/05/17 12:05:33;;;;;;;3.17;2.87;;;28.00;54.20;;;;;;4897889;29;20465;-83
2022/05/17 12:08:44;;;;;;;5.23;2.93;;;28.20;54.10;;;;;;4903709;29;20891;-82
2022/05/17 12:11:10;;;;;;;4.20;2.77;;;28.10;54.30;;;;;;4901655;29;20816;-84
2022/05/17 12:13:54;;;;;;;3.20;2.53;;;27.60;51.40;;;;;;4900923;29;20444;-82
2022/05/17 12:16:24;;;;;;;7.53;3.60;;;27.40;54.20;;;;;;4900309;29;20202;-83
2022/05/17 12:18:57;;;;;;;3.60;3.30;;;27.40;54.70;;;;;;4899583;29;20776;-83
2022/05/17 12:21:46;;;;;;;9.60;3.80;;;27.60;55.40;;;;;;4902764;29;20451;-83
2022/05/17 12:24:21;;;;;;;4.83;3.83;;;27.70;53.90;;;;;;4917367;29;20950;-86
2022/05/17 12:27:00;;;;;;;6.33;3.30;;;27.70;52.30;;;;;;4901565;29;20473;-82
2022/05/17 12:32:12;;;;;;;4.47;3.27;;;27.30;52.90;;;;;;4899185;29;20503;-83
2022/05/17 12:34:39;;;;;;;3.73;3.37;;;27.20;54.40;;;;;;4902650;29;20595;-83
2022/05/17 12:37:15;;;;;;;3.20;2.90;;;27.10;53.70;;;;;;4904318;29;20211;-84
2022/05/17 12:45:23;;;;;;;4.67;2.80;;;27.30;54.40;;;;;;4899513;29;20529;-83
2022/05/17 12:47:54;;;;;;;3.87;3.20;;;27.00;50.80;;;;;;4905348;29;20472;-85
2022/05/17 12:50:24;;;;;;;4.20;3.03;;;26.90;51.60;;;;;;4899796;29;20453;-83
2022/05/17 12:52:56;;;;;;;6.63;3.30;;;27.00;52.20;;;;;;4903425;29;20438;-83
2022/05/17 12:55:25;;;;;;;4.27;3.27;;;27.10;53.00;;;;;;4921222;29;20458;-84
2022/05/17 12:57:52;;;;;;;8.07;4.97;;;26.70;53.30;;;;;;4896376;29;20839;-82
2022/05/17 13:00:24;;;;;;;6.63;3.90;;;26.50;55.00;;;;;;4901654;29;20457;-83
2022/05/17 13:02:58;;;;;;;4.83;3.07;;;26.50;54.60;;;;;;4898611;29;20984;-84
2022/05/17 13:05:26;;;;;;;4.90;3.10;;;26.60;55.20;;;;;;4898483;29;20480;-80
2022/05/17 13:08:10;;;;;;;9.53;5.93;;;26.50;55.00;;;;;;4897958;29;20456;-84
2022/05/17 13:10:38;;;;;;;3.13;2.83;;;26.50;56.20;;;;;;4898404;29;20445;-84
2022/05/17 13:13:19;;;;;;;6.73;3.10;;;26.50;55.70;;;;;;4901129;29;20871;-83
2022/05/17 13:15:49;;;;;;;5.97;3.43;;;26.40;53.90;;;;;;4902579;29;20471;-84
2022/05/17 13:18:17;;;;;;;2.70;2.50;;;26.30;54.50;;;;;;4898839;29;20544;-85
2022/05/17 13:20:48;;;;;;;4.47;2.57;;;26.50;55.30;;;;;;4899719;29;20453;-84
2022/05/17 13:23:16;;;;;;;3.23;2.43;;;26.90;54.50;;;;;;4899153;29;20515;-85
2022/05/17 13:25:45;;;;;;;6.57;2.90;;;26.90;52.60;;;;;;4907248;29;20487;-85
2022/05/17 13:28:11;;;;;;;5.00;2.60;;;27.00;52.80;;;;;;4905548;29;20555;-83